createdAt,value
2023-04-20T00:00:18.340Z,17.55
2023-04-20T00:02:47.818Z,12.30
2023-04-20T00:05:16.057Z,12.63
2023-04-20T00:07:43.980Z,13.50
2023-04-20T00:10:12.080Z,13.75
2023-04-20T00:12:40.174Z,11.55
2023-04-20T00:15:08.206Z,11.45
2023-04-20T00:17:36.676Z,11.30
2023-04-20T00:20:05.331Z,10.90
2023-04-20T00:22:33.269Z,11.15
2023-04-20T00:25:01.131Z,12.35
2023-04-20T00:27:29.161Z,10.73
2023-04-20T00:29:57.044Z,10.77
2023-04-20T00:32:25.087Z,10.52
2023-04-20T00:34:53.162Z,10.18
2023-04-20T00:37:20.983Z,10.30
2023-04-20T00:39:48.854Z,7.68
2023-04-20T00:42:16.656Z,10.27
2023-04-20T00:44:45.766Z,7.72
2023-04-20T00:47:13.834Z,10.45
2023-04-20T00:49:41.741Z,8.05
2023-04-20T00:52:09.829Z,8.82
2023-04-20T00:54:37.742Z,7.05
2023-04-20T00:57:06.091Z,9.68
2023-04-20T00:59:36.147Z,9.00
2023-04-20T01:02:04.214Z,7.78
2023-04-20T01:04:32.407Z,6.72
2023-04-20T01:07:00.402Z,8.40
2023-04-20T01:09:28.304Z,9.80
2023-04-20T01:11:56.862Z,9.32
2023-04-20T01:14:24.669Z,7.30
2023-04-20T01:16:52.510Z,7.72
2023-04-20T01:19:21.693Z,8.20
2023-04-20T01:21:49.554Z,7.88
2023-04-20T01:24:17.599Z,8.13
2023-04-20T01:26:45.504Z,6.78
2023-04-20T01:29:13.498Z,13.68
2023-04-20T01:31:41.480Z,9.27
2023-04-20T01:34:10.600Z,8.68
2023-04-20T01:36:39.956Z,8.77
2023-04-20T01:39:08.789Z,7.80
2023-04-20T01:41:36.674Z,8.95
2023-04-20T01:44:04.583Z,7.95
2023-04-20T01:46:32.495Z,7.05
2023-04-20T01:49:00.508Z,10.60
2023-04-20T01:51:28.467Z,9.07
2023-04-20T01:53:56.415Z,8.13
2023-04-20T01:56:24.258Z,9.45
2023-04-20T01:58:52.227Z,10.38
2023-04-20T02:01:20.384Z,8.60
2023-04-20T02:03:49.717Z,7.57
2023-04-20T02:06:17.933Z,8.20
2023-04-20T02:08:45.946Z,8.77
2023-04-20T02:11:13.820Z,9.40
2023-04-20T02:13:42.211Z,7.93
2023-04-20T02:16:10.851Z,8.40
2023-04-20T02:18:39.369Z,8.63
2023-04-20T02:21:07.496Z,8.75
2023-04-20T02:23:35.305Z,8.90
2023-04-20T02:26:03.270Z,10.57
2023-04-20T02:28:31.083Z,8.88
2023-04-20T02:30:59.075Z,8.75
2023-04-20T02:33:27.486Z,9.27
2023-04-20T02:35:55.502Z,8.60
2023-04-20T02:38:23.367Z,8.70
2023-04-20T02:40:51.446Z,10.90
2023-04-20T02:43:19.333Z,7.57
2023-04-20T02:45:48.319Z,9.55
2023-04-20T02:48:17.102Z,9.30
2023-04-20T02:50:45.949Z,9.20
2023-04-20T02:53:22.916Z,8.50
2023-04-20T02:55:58.658Z,9.73
2023-04-20T02:58:39.674Z,7.85
2023-04-20T03:01:27.902Z,11.52
2023-04-20T03:04:04.723Z,8.70
2023-04-20T03:06:38.722Z,9.57
2023-04-20T03:09:09.036Z,8.35
2023-04-20T03:11:59.804Z,8.63
2023-04-20T03:14:46.334Z,8.98
2023-04-20T03:17:14.894Z,8.13
2023-04-20T03:19:42.855Z,8.70
2023-04-20T03:22:11.057Z,9.65
2023-04-20T03:24:38.978Z,9.93
2023-04-20T03:27:17.603Z,9.15
2023-04-20T03:30:01.311Z,10.63
2023-04-20T03:32:32.088Z,9.57
2023-04-20T03:35:00.548Z,9.45
2023-04-20T03:37:28.499Z,10.18
2023-04-20T03:39:56.463Z,8.93
2023-04-20T03:42:24.415Z,9.23
2023-04-20T03:44:52.345Z,10.50
2023-04-20T03:47:20.503Z,8.70
2023-04-20T03:49:48.836Z,10.55
2023-04-20T03:52:16.750Z,9.57
2023-04-20T03:54:44.720Z,9.15
2023-04-20T03:57:16.031Z,11.20
2023-04-20T03:59:44.874Z,9.63
2023-04-20T04:02:17.338Z,9.67
2023-04-20T04:04:47.614Z,8.88
2023-04-20T04:07:15.590Z,9.55
2023-04-20T04:09:44.883Z,8.68
2023-04-20T04:12:13.861Z,8.68
2023-04-20T04:14:42.051Z,8.98
2023-04-20T04:17:11.216Z,8.02
2023-04-20T04:19:43.706Z,8.57
2023-04-20T04:22:11.715Z,9.68
2023-04-20T04:24:49.495Z,8.60
2023-04-20T04:27:19.392Z,11.30
2023-04-20T04:29:54.685Z,9.77
2023-04-20T04:32:27.339Z,7.85
2023-04-20T04:34:55.705Z,9.40
2023-04-20T04:37:23.924Z,10.45
2023-04-20T04:39:55.900Z,7.95
2023-04-20T04:42:29.040Z,9.75
2023-04-20T04:45:01.945Z,12.05
2023-04-20T04:47:36.120Z,10.40
2023-04-20T04:50:06.113Z,33.60
2023-04-20T04:52:34.320Z,34.63
2023-04-20T04:55:02.759Z,16.75
2023-04-20T04:57:30.700Z,10.02
2023-04-20T04:59:58.852Z,8.95
2023-04-20T05:02:26.881Z,9.10
2023-04-20T05:04:55.189Z,8.45
2023-04-20T05:07:23.144Z,7.43
2023-04-20T05:09:51.253Z,7.40
2023-04-20T05:12:19.588Z,8.18
2023-04-20T05:14:47.528Z,7.78
2023-04-20T05:17:15.701Z,7.43
2023-04-20T05:20:24.512Z,7.05
2023-04-20T05:22:54.623Z,9.18
2023-04-20T05:25:22.585Z,7.20
2023-04-20T05:27:50.383Z,7.95
2023-04-20T05:30:22.206Z,7.47
2023-04-20T05:32:52.189Z,9.68
2023-04-20T05:35:28.266Z,8.10
2023-04-20T05:37:56.327Z,7.82
2023-04-20T05:40:24.567Z,8.20
2023-04-20T05:42:52.551Z,8.50
2023-04-20T05:45:20.600Z,8.85
2023-04-20T05:47:55.576Z,8.40
2023-04-20T05:50:24.700Z,10.10
2023-04-20T05:52:58.129Z,11.18
2023-04-20T05:55:28.204Z,9.13
2023-04-20T05:57:56.148Z,7.57
2023-04-20T06:00:26.112Z,7.78
2023-04-20T06:02:55.213Z,8.50
2023-04-20T06:05:23.667Z,7.70
2023-04-20T06:07:51.875Z,10.20
2023-04-20T06:10:19.763Z,8.18
2023-04-20T06:12:47.975Z,9.35
2023-04-20T06:15:15.921Z,7.32
2023-04-20T06:17:43.908Z,8.38
2023-04-20T06:20:12.010Z,8.48
2023-04-20T06:22:46.969Z,9.82
2023-04-20T06:25:15.844Z,9.93
2023-04-20T06:27:43.979Z,8.68
2023-04-20T06:30:12.168Z,13.23
2023-04-20T06:32:40.105Z,8.23
2023-04-20T06:35:08.762Z,8.02
2023-04-20T06:37:36.834Z,8.75
2023-04-20T06:40:08.976Z,7.00
2023-04-20T06:42:37.688Z,6.13
2023-04-20T06:45:06.816Z,8.23
2023-04-20T06:47:35.168Z,8.18
2023-04-20T06:50:04.782Z,7.60
2023-04-20T06:52:32.730Z,8.43
2023-04-20T06:55:00.696Z,11.25
2023-04-20T06:57:28.734Z,9.60
2023-04-20T06:59:56.612Z,9.45
2023-04-20T07:02:24.601Z,8.00
2023-04-20T07:04:52.720Z,8.80
2023-04-20T07:07:20.649Z,7.32
2023-04-20T07:09:48.573Z,7.50
2023-04-20T07:12:16.434Z,5.80
2023-04-20T07:14:44.317Z,7.22
2023-04-20T07:17:12.159Z,5.45
2023-04-20T07:19:40.359Z,5.13
2023-04-20T07:22:08.284Z,6.47
2023-04-20T07:24:36.163Z,8.40
2023-04-20T07:27:04.217Z,4.20
2023-04-20T07:29:33.949Z,6.95
2023-04-20T07:32:02.061Z,5.10
2023-04-20T07:34:30.028Z,5.53
2023-04-20T07:36:57.907Z,5.72
2023-04-20T07:39:28.673Z,3.90
2023-04-20T07:41:57.232Z,4.63
2023-04-20T07:44:25.188Z,6.05
2023-04-20T07:46:53.067Z,4.40
2023-04-20T07:49:21.107Z,3.70
2023-04-20T07:51:48.999Z,4.57
2023-04-20T07:54:17.013Z,5.47
2023-04-20T07:56:44.855Z,5.15
2023-04-20T07:59:12.929Z,6.63
2023-04-20T08:01:40.908Z,4.40
2023-04-20T08:04:09.149Z,5.18
2023-04-20T08:06:37.243Z,5.55
2023-04-20T08:09:05.295Z,4.68
2023-04-20T08:11:33.134Z,6.80
2023-04-20T08:14:01.040Z,7.95
2023-04-20T08:16:29.030Z,5.28
2023-04-20T08:18:56.958Z,5.40
2023-04-20T08:21:25.949Z,4.95
2023-04-20T08:23:54.225Z,3.45
2023-04-20T08:26:25.376Z,4.93
2023-04-20T08:28:53.330Z,4.45
2023-04-20T08:31:21.284Z,4.80
2023-04-20T08:33:49.157Z,5.50
2023-04-20T08:36:17.123Z,4.03
2023-04-20T08:38:45.072Z,4.90
2023-04-20T08:41:16.325Z,5.28
2023-04-20T08:43:44.178Z,4.45
2023-04-20T08:46:12.238Z,4.00
2023-04-20T08:48:41.177Z,5.63
2023-04-20T08:51:09.259Z,7.40
2023-04-20T08:53:37.114Z,10.05
2023-04-20T08:56:05.495Z,5.25
2023-04-20T08:58:33.695Z,3.83
2023-04-20T09:01:03.537Z,4.18
2023-04-20T09:03:42.319Z,4.90
2023-04-20T09:06:17.586Z,4.18
2023-04-20T09:08:47.043Z,3.80
2023-04-20T09:11:24.662Z,5.10
2023-04-20T09:14:03.091Z,4.50
2023-04-20T09:16:31.815Z,3.72
2023-04-20T09:19:01.089Z,6.90
2023-04-20T09:21:29.464Z,4.85
2023-04-20T09:24:01.748Z,4.03
2023-04-20T09:26:33.274Z,3.83
2023-04-20T09:29:02.392Z,4.70
2023-04-20T09:31:30.586Z,4.43
2023-04-20T09:34:02.764Z,4.03
2023-04-20T09:36:40.708Z,4.43
2023-04-20T09:39:12.812Z,11.60
2023-04-20T09:41:41.561Z,4.05
2023-04-20T09:44:10.019Z,5.07
2023-04-20T09:46:38.882Z,5.10
2023-04-20T09:49:07.898Z,5.22
2023-04-20T09:51:41.798Z,5.68
2023-04-20T09:54:09.740Z,4.97
2023-04-20T09:56:37.640Z,5.72
2023-04-20T09:59:05.787Z,5.38
2023-04-20T10:01:36.186Z,4.70
2023-04-20T10:04:08.700Z,4.47
2023-04-20T10:06:37.711Z,4.75
2023-04-20T10:09:07.983Z,10.20
2023-04-20T10:11:45.202Z,6.15
2023-04-20T10:14:20.262Z,7.10
2023-04-20T10:17:00.039Z,6.05
2023-04-20T10:19:57.559Z,10.35
2023-04-20T10:22:33.544Z,8.85
2023-04-20T10:25:02.467Z,9.05
2023-04-20T10:27:32.347Z,7.00
2023-04-20T10:30:10.315Z,5.88
2023-04-20T10:32:38.314Z,6.97
2023-04-20T10:35:07.828Z,10.23
2023-04-20T10:37:36.264Z,6.72
2023-04-20T10:40:08.303Z,7.65
2023-04-20T10:42:42.954Z,9.80
2023-04-20T10:45:11.418Z,7.43
2023-04-20T10:47:41.054Z,6.90
2023-04-20T10:50:09.377Z,7.72
2023-04-20T10:52:38.014Z,8.43
2023-04-20T10:55:07.199Z,7.22
2023-04-20T10:57:35.069Z,10.40
2023-04-20T11:00:16.748Z,7.70
2023-04-20T11:02:49.312Z,8.80
2023-04-20T11:05:18.218Z,8.73
2023-04-20T11:07:55.515Z,9.82
2023-04-20T11:10:24.915Z,10.55
2023-04-20T11:12:53.322Z,11.70
2023-04-20T11:15:31.681Z,9.77
2023-04-20T11:18:08.023Z,9.57
2023-04-20T11:20:36.481Z,9.75
2023-04-20T11:23:06.214Z,9.50
2023-04-20T11:25:34.132Z,13.98
2023-04-20T11:28:09.083Z,9.13
2023-04-20T11:30:43.426Z,11.15
2023-04-20T11:33:11.815Z,11.20
2023-04-20T11:35:43.962Z,8.23
2023-04-20T11:38:12.052Z,10.52
2023-04-20T11:40:40.018Z,11.65
2023-04-20T11:43:07.933Z,10.57
2023-04-20T11:45:36.768Z,11.07
2023-04-20T11:48:06.283Z,10.90
2023-04-20T11:50:34.322Z,10.15
2023-04-20T11:53:02.578Z,10.80
2023-04-20T11:55:30.602Z,9.45
2023-04-20T11:57:58.599Z,9.98
2023-04-20T12:00:26.611Z,11.32
2023-04-20T12:02:54.751Z,10.38
2023-04-20T12:05:23.030Z,12.90
2023-04-20T12:07:50.884Z,11.73
2023-04-20T12:10:18.923Z,9.90
2023-04-20T12:12:46.932Z,11.25
2023-04-20T12:15:14.852Z,13.93
2023-04-20T12:17:42.729Z,11.85
2023-04-20T12:20:12.381Z,13.32
2023-04-20T12:22:41.059Z,11.50
2023-04-20T12:25:09.208Z,12.73
2023-04-20T12:27:37.386Z,9.65
2023-04-20T12:30:05.693Z,11.52
2023-04-20T12:32:33.519Z,10.35
2023-04-20T12:35:01.618Z,10.13
2023-04-20T12:37:29.481Z,12.82
2023-04-20T12:39:57.861Z,11.65
2023-04-20T12:42:25.784Z,14.95
2023-04-20T12:44:56.987Z,11.35
2023-04-20T12:47:24.868Z,14.55
2023-04-20T12:49:52.834Z,11.95
2023-04-20T12:52:20.718Z,10.93
2023-04-20T12:54:48.650Z,12.57
2023-04-20T12:57:17.150Z,8.60
2023-04-20T12:59:45.092Z,7.72
2023-04-20T13:02:13.334Z,10.20
2023-04-20T13:04:41.562Z,10.02
2023-04-20T13:07:09.554Z,9.88
2023-04-20T13:09:37.485Z,10.32
2023-04-20T13:12:05.516Z,10.35
2023-04-20T13:14:33.574Z,9.57
2023-04-20T13:17:02.090Z,9.82
2023-04-20T13:19:30.509Z,10.10
2023-04-20T13:21:58.449Z,10.10
2023-04-20T13:24:26.385Z,10.23
2023-04-20T13:26:59.025Z,9.07
2023-04-20T13:29:27.335Z,8.25
2023-04-20T13:31:55.343Z,12.15
2023-04-20T13:34:23.318Z,7.50
2023-04-20T13:36:51.904Z,7.25
2023-04-20T13:39:20.963Z,10.75
2023-04-20T13:41:52.050Z,8.73
2023-04-20T13:44:20.226Z,8.23
2023-04-20T13:46:48.698Z,9.48
2023-04-20T13:49:17.083Z,8.07
2023-04-20T13:51:45.082Z,12.80
2023-04-20T13:54:13.045Z,12.40
2023-04-20T13:56:40.899Z,8.35
2023-04-20T13:59:08.784Z,9.90
2023-04-20T14:01:36.990Z,8.52
2023-04-20T14:04:05.061Z,9.25
2023-04-20T14:06:32.970Z,8.77
2023-04-20T14:09:00.925Z,9.10
2023-04-20T14:11:28.815Z,10.60
2023-04-20T14:13:56.751Z,13.90
2023-04-20T14:16:26.327Z,10.25
2023-04-20T14:18:54.293Z,10.52
2023-04-20T14:21:22.338Z,8.88
2023-04-20T14:23:54.729Z,10.00
2023-04-20T14:26:22.663Z,9.07
2023-04-20T14:28:52.664Z,8.73
2023-04-20T14:31:20.541Z,9.05
2023-04-20T14:33:49.527Z,8.57
2023-04-20T14:36:17.393Z,9.93
2023-04-20T14:38:45.278Z,8.15
2023-04-20T14:41:13.109Z,8.75
2023-04-20T14:43:40.974Z,10.85
2023-04-20T14:46:08.889Z,9.40
2023-04-20T14:48:38.237Z,7.47
2023-04-20T14:51:06.461Z,12.20
2023-04-20T14:53:34.469Z,7.68
2023-04-20T14:56:02.280Z,9.43
2023-04-20T14:58:30.316Z,10.90
2023-04-20T15:00:58.215Z,13.52
2023-04-20T15:03:26.459Z,10.27
2023-04-20T15:05:58.502Z,9.25
2023-04-20T15:08:27.009Z,6.95
2023-04-20T15:10:56.856Z,11.07
2023-04-20T15:13:25.523Z,9.55
2023-04-20T15:15:55.249Z,10.00
2023-04-20T15:18:23.508Z,7.75
2023-04-20T15:20:52.689Z,10.32
2023-04-20T15:23:20.771Z,8.60
2023-04-20T15:25:48.587Z,8.45
2023-04-20T15:28:16.743Z,11.38
2023-04-20T15:30:44.675Z,8.52
2023-04-20T15:33:14.648Z,9.77
2023-04-20T15:35:42.486Z,7.75
2023-04-20T15:38:10.418Z,11.60
2023-04-20T15:40:38.975Z,8.73
2023-04-20T15:43:07.171Z,10.35
2023-04-20T15:45:35.270Z,10.75
2023-04-20T15:48:03.263Z,7.63
2023-04-20T15:50:31.390Z,9.57
2023-04-20T15:52:59.328Z,9.85
2023-04-20T15:55:27.195Z,9.20
2023-04-20T15:57:58.200Z,8.80
2023-04-20T16:00:26.237Z,9.65
2023-04-20T16:02:54.447Z,7.97
2023-04-20T16:05:22.499Z,7.63
2023-04-20T16:07:50.380Z,7.05
2023-04-20T16:10:18.219Z,5.53
2023-04-20T16:12:46.180Z,6.00
2023-04-20T16:15:13.983Z,9.73
2023-04-20T16:17:41.872Z,5.43
2023-04-20T16:20:09.952Z,5.82
2023-04-20T16:22:38.054Z,10.00
2023-04-20T16:25:06.974Z,5.82
2023-04-20T16:27:34.908Z,6.00
2023-04-20T16:30:02.772Z,5.35
2023-04-20T16:32:31.565Z,5.05
2023-04-20T16:34:59.436Z,4.72
2023-04-20T16:37:27.315Z,4.85
2023-04-20T16:39:55.171Z,4.95
2023-04-20T16:42:23.378Z,5.45
2023-04-20T16:44:51.276Z,4.00
2023-04-20T16:47:19.182Z,4.70
2023-04-20T16:49:47.471Z,4.32
2023-04-20T16:52:15.354Z,4.50
2023-04-20T16:54:43.189Z,5.05
2023-04-20T16:57:11.124Z,4.18
2023-04-20T16:59:39.021Z,5.82
2023-04-20T17:02:07.104Z,4.20
2023-04-20T17:04:35.919Z,4.80
2023-04-20T17:07:04.177Z,4.95
2023-04-20T17:09:32.021Z,5.13
2023-04-20T17:12:01.504Z,5.45
2023-04-20T17:14:32.433Z,3.95
2023-04-20T17:17:00.693Z,4.18
2023-04-20T17:19:30.744Z,5.45
2023-04-20T17:21:59.902Z,7.35
2023-04-20T17:24:27.852Z,6.20
2023-04-20T17:26:55.830Z,4.38
2023-04-20T17:29:23.810Z,4.68
2023-04-20T17:31:51.797Z,4.22
2023-04-20T17:34:20.173Z,4.30
2023-04-20T17:36:48.260Z,6.05
2023-04-20T17:39:16.311Z,4.25
2023-04-20T17:41:44.758Z,4.28
2023-04-20T17:44:12.726Z,4.70
2023-04-20T17:46:40.816Z,5.35
2023-04-20T17:49:08.765Z,6.13
2023-04-20T17:51:36.682Z,6.57
2023-04-20T17:54:07.194Z,5.30
2023-04-20T17:56:35.073Z,6.53
2023-04-20T17:59:03.017Z,5.68
2023-04-20T18:01:34.520Z,3.80
2023-04-20T18:04:03.340Z,6.50
2023-04-20T18:06:33.389Z,5.95
2023-04-20T18:09:01.479Z,4.57
2023-04-20T18:11:29.525Z,4.82
2023-04-20T18:13:57.555Z,5.05
2023-04-20T18:16:25.644Z,6.57
2023-04-20T18:18:53.677Z,5.38
2023-04-20T18:21:21.656Z,4.95
2023-04-20T18:23:49.681Z,6.03
2023-04-20T18:26:17.785Z,4.97
2023-04-20T18:28:45.820Z,7.35
2023-04-20T18:31:14.145Z,9.82
2023-04-20T18:33:41.975Z,26.23
2023-04-20T18:36:10.151Z,7.05
2023-04-20T18:38:37.940Z,8.48
2023-04-20T18:41:06.087Z,7.28
2023-04-20T18:43:34.245Z,5.65
2023-04-20T18:46:02.296Z,6.10
2023-04-20T18:48:30.135Z,7.05
2023-04-20T18:51:00.148Z,6.10
2023-04-20T18:53:28.124Z,5.55
2023-04-20T18:55:59.254Z,5.88
2023-04-20T18:58:27.281Z,7.35
2023-04-20T19:00:55.369Z,7.55
2023-04-20T19:03:24.368Z,7.35
2023-04-20T19:05:52.357Z,5.60
2023-04-20T19:08:20.782Z,8.02
2023-04-20T19:10:50.647Z,5.28
2023-04-20T19:13:18.852Z,7.93
2023-04-20T19:15:46.935Z,5.00
2023-04-20T19:18:16.781Z,6.15
2023-04-20T19:20:44.625Z,7.10
2023-04-20T19:23:12.775Z,6.95
2023-04-20T19:25:40.648Z,7.55
2023-04-20T19:28:08.724Z,10.52
2023-04-20T19:30:36.871Z,3.95
2023-04-20T19:33:05.465Z,5.95
2023-04-20T19:35:33.565Z,5.90
2023-04-20T19:38:01.630Z,6.25
2023-04-20T19:40:29.578Z,5.43
2023-04-20T19:42:57.609Z,4.90
2023-04-20T19:45:25.504Z,6.05
2023-04-20T19:47:53.673Z,4.85
2023-04-20T19:50:34.690Z,7.10
2023-04-20T19:53:03.874Z,5.68
2023-04-20T19:55:31.840Z,5.47
2023-04-20T19:57:59.948Z,33.13
2023-04-20T20:00:27.881Z,45.28
2023-04-20T20:02:56.066Z,11.10
2023-04-20T20:05:24.171Z,6.40
2023-04-20T20:07:52.307Z,5.72
2023-04-20T20:10:21.110Z,7.35
2023-04-20T20:12:49.152Z,6.05
2023-04-20T20:15:17.174Z,6.13
2023-04-20T20:17:47.743Z,6.38
2023-04-20T20:20:15.762Z,4.97
2023-04-20T20:22:48.470Z,6.82
2023-04-20T20:25:19.390Z,8.27
2023-04-20T20:27:47.364Z,8.25
2023-04-20T20:30:15.686Z,6.13
2023-04-20T20:32:43.802Z,8.27
2023-04-20T20:35:13.163Z,7.18
2023-04-20T20:37:46.162Z,8.02
2023-04-20T20:40:15.463Z,9.35
2023-04-20T20:42:45.576Z,5.90
2023-04-20T20:45:14.129Z,5.82
2023-04-20T20:47:43.996Z,5.80
2023-04-20T20:50:13.114Z,8.90
2023-04-20T20:52:41.379Z,5.13
2023-04-20T20:55:10.155Z,8.45
2023-04-20T20:57:38.633Z,7.55
2023-04-20T21:00:10.500Z,6.45
2023-04-20T21:02:38.780Z,5.35
2023-04-20T21:05:07.374Z,6.10
2023-04-20T21:07:35.699Z,6.68
2023-04-20T21:10:04.524Z,5.55
2023-04-20T21:12:32.558Z,6.13
2023-04-20T21:15:00.687Z,6.43
2023-04-20T21:17:28.649Z,5.88
2023-04-20T21:19:56.589Z,7.05
2023-04-20T21:22:24.423Z,7.55
2023-04-20T21:24:52.456Z,7.28
2023-04-20T21:27:20.349Z,7.45
2023-04-20T21:29:48.258Z,6.22
2023-04-20T21:32:16.326Z,7.82
2023-04-20T21:34:44.491Z,6.35
2023-04-20T21:37:12.463Z,6.45
2023-04-20T21:39:40.482Z,7.32
2023-04-20T21:42:08.528Z,6.10
2023-04-20T21:44:36.553Z,5.93
2023-04-20T21:47:04.675Z,5.07
2023-04-20T21:49:32.511Z,5.88
2023-04-20T21:52:00.619Z,5.50
2023-04-20T21:54:28.515Z,5.13
2023-04-20T21:56:57.094Z,4.78
2023-04-20T21:59:25.026Z,6.70
2023-04-20T22:01:52.931Z,6.05
2023-04-20T22:04:21.169Z,5.50
2023-04-20T22:06:49.532Z,4.55
2023-04-20T22:09:18.564Z,4.40
2023-04-20T22:11:46.655Z,5.68
2023-04-20T22:14:14.722Z,5.10
2023-04-20T22:16:42.672Z,8.13
2023-04-20T22:19:10.723Z,5.32
2023-04-20T22:21:39.205Z,5.00
2023-04-20T22:24:07.497Z,5.38
2023-04-20T22:26:35.526Z,4.72
2023-04-20T22:29:03.547Z,4.15
2023-04-20T22:31:31.781Z,4.82
2023-04-20T22:33:59.750Z,6.25
2023-04-20T22:36:28.315Z,4.82
2023-04-20T22:38:56.463Z,4.97
2023-04-20T22:41:24.351Z,4.90
2023-04-20T22:43:52.345Z,5.63
2023-04-20T22:46:20.717Z,6.35
2023-04-20T22:48:49.213Z,4.50
2023-04-20T22:51:17.463Z,5.38
2023-04-20T22:53:45.488Z,4.68
2023-04-20T22:56:13.641Z,5.38
2023-04-20T22:58:42.854Z,4.60
2023-04-20T23:01:10.911Z,4.47
2023-04-20T23:03:39.076Z,4.78
2023-04-20T23:06:07.468Z,5.00
2023-04-20T23:08:35.572Z,3.80
2023-04-20T23:11:04.870Z,4.22
2023-04-20T23:13:33.432Z,4.60
2023-04-20T23:16:01.563Z,5.03
2023-04-20T23:18:29.460Z,5.15
2023-04-20T23:20:57.486Z,3.65
2023-04-20T23:23:25.685Z,3.10
2023-04-20T23:25:54.368Z,3.42
2023-04-20T23:28:22.436Z,3.60
2023-04-20T23:30:50.586Z,4.18
2023-04-20T23:33:18.862Z,3.92
2023-04-20T23:35:46.815Z,3.35
2023-04-20T23:38:14.731Z,3.70
2023-04-20T23:40:42.948Z,4.03
2023-04-20T23:43:11.029Z,5.53
2023-04-20T23:45:38.975Z,4.70
2023-04-20T23:48:07.221Z,4.45
2023-04-20T23:50:37.146Z,4.78
2023-04-20T23:53:05.825Z,4.15
2023-04-20T23:55:33.857Z,3.70
2023-04-20T23:58:01.831Z,6.82
